sensor_id;sensor_type;location;lat;lon;timestamp;P1;durP1;ratioP1;P2;durP2;ratioP2
6926;SDS011;3503;50.07605000;8.86719200;2023-05-10T00:11:40;8.30;;;0.80;;
6926;SDS011;3503;50.07605000;8.86719200;2023-05-10T00:26:43;1.50;;;0.50;;
6926;SDS011;3503;50.07605000;8.86719200;2023-05-10T00:41:46;1.70;;;0.43;;
6926;SDS011;3503;50.07605000;8.86719200;2023-05-10T00:56:49;2.37;;;0.60;;
6926;SDS011;3503;50.07605000;8.86719200;2023-05-10T01:11:52;1.67;;;0.47;;
6926;SDS011;3503;50.07605000;8.86719200;2023-05-10T01:27:04;1.50;;;0.43;;
6926;SDS011;3503;50.07605000;8.86719200;2023-05-10T01:42:31;5.70;;;0.60;;
6926;SDS011;3503;50.07605000;8.86719200;2023-05-10T01:57:39;1.20;;;0.40;;
6926;SDS011;3503;50.07605000;8.86719200;2023-05-10T02:12:45;2.27;;;0.67;;
6926;SDS011;3503;50.07605000;8.86719200;2023-05-10T02:27:49;2.20;;;0.80;;
6926;SDS011;3503;50.07605000;8.86719200;2023-05-10T02:42:53;6.83;;;1.10;;
6926;SDS011;3503;50.07605000;8.86719200;2023-05-10T02:57:58;4.10;;;0.60;;
6926;SDS011;3503;50.07605000;8.86719200;2023-05-10T03:13:10;2.40;;;0.60;;
6926;SDS011;3503;50.07605000;8.86719200;2023-05-10T03:28:17;1.33;;;0.67;;
6926;SDS011;3503;50.07605000;8.86719200;2023-05-10T03:43:21;2.80;;;0.87;;
6926;SDS011;3503;50.07605000;8.86719200;2023-05-10T03:58:24;1.60;;;0.70;;
6926;SDS011;3503;50.07605000;8.86719200;2023-05-10T04:13:27;3.00;;;1.47;;
6926;SDS011;3503;50.07605000;8.86719200;2023-05-10T04:28:30;2.53;;;1.07;;
6926;SDS011;3503;50.07605000;8.86719200;2023-05-10T04:43:33;2.00;;;1.10;;
6926;SDS011;3503;50.07605000;8.86719200;2023-05-10T04:58:37;10.60;;;1.50;;
6926;SDS011;3503;50.07605000;8.86719200;2023-05-10T05:13:40;3.07;;;1.30;;
6926;SDS011;3503;50.07605000;8.86719200;2023-05-10T05:28:44;4.30;;;2.33;;
6926;SDS011;3503;50.07605000;8.86719200;2023-05-10T05:43:47;11.30;;;1.90;;
6926;SDS011;3503;50.07605000;8.86719200;2023-05-10T05:58:50;9.83;;;3.10;;
6926;SDS011;3503;50.07605000;8.86719200;2023-05-10T06:13:53;2.73;;;1.93;;
6926;SDS011;3503;50.07605000;8.86719200;2023-05-10T06:28:56;4.17;;;1.83;;
6926;SDS011;3503;50.07605000;8.86719200;2023-05-10T06:43:59;4.13;;;2.33;;
6926;SDS011;3503;50.07605000;8.86719200;2023-05-10T06:59:02;7.57;;;2.57;;
6926;SDS011;3503;50.07605000;8.86719200;2023-05-10T07:14:05;4.63;;;2.10;;
6926;SDS011;3503;50.07605000;8.86719200;2023-05-10T07:29:08;4.67;;;2.30;;
6926;SDS011;3503;50.07605000;8.86719200;2023-05-10T07:44:12;9.67;;;2.17;;
6926;SDS011;3503;50.07605000;8.86719200;2023-05-10T07:59:16;12.47;;;2.90;;
6926;SDS011;3503;50.07605000;8.86719200;2023-05-10T08:14:19;5.40;;;2.40;;
6926;SDS011;3503;50.07605000;8.86719200;2023-05-10T08:29:22;6.23;;;2.57;;
6926;SDS011;3503;50.07605000;8.86719200;2023-05-10T08:44:26;4.03;;;1.50;;
6926;SDS011;3503;50.07605000;8.86719200;2023-05-10T08:59:29;4.30;;;1.90;;
6926;SDS011;3503;50.07605000;8.86719200;2023-05-10T09:14:32;3.90;;;1.60;;
6926;SDS011;3503;50.07605000;8.86719200;2023-05-10T09:29:42;6.00;;;2.00;;
6926;SDS011;3503;50.07605000;8.86719200;2023-05-10T09:44:46;5.13;;;1.67;;
6926;SDS011;3503;50.07605000;8.86719200;2023-05-10T09:59:49;8.13;;;1.70;;
6926;SDS011;3503;50.07605000;8.86719200;2023-05-10T10:14:54;4.23;;;2.10;;
6926;SDS011;3503;50.07605000;8.86719200;2023-05-10T10:30:01;4.17;;;1.30;;
6926;SDS011;3503;50.07605000;8.86719200;2023-05-10T10:45:13;4.40;;;1.30;;
6926;SDS011;3503;50.07605000;8.86719200;2023-05-10T11:00:20;3.53;;;1.30;;
6926;SDS011;3503;50.07605000;8.86719200;2023-05-10T11:15:29;3.57;;;1.10;;
6926;SDS011;3503;50.07605000;8.86719200;2023-05-10T11:30:33;3.93;;;1.00;;
6926;SDS011;3503;50.07605000;8.86719200;2023-05-10T11:45:36;5.60;;;0.80;;
6926;SDS011;3503;50.07605000;8.86719200;2023-05-10T12:00:39;3.13;;;0.87;;
6926;SDS011;3503;50.07605000;8.86719200;2023-05-10T12:15:43;2.27;;;1.17;;
6926;SDS011;3503;50.07605000;8.86719200;2023-05-10T12:30:46;2.90;;;0.70;;
6926;SDS011;3503;50.07605000;8.86719200;2023-05-10T12:45:49;2.10;;;0.70;;
6926;SDS011;3503;50.07605000;8.86719200;2023-05-10T13:00:52;1.20;;;0.50;;
6926;SDS011;3503;50.07605000;8.86719200;2023-05-10T13:15:57;2.33;;;0.80;;
6926;SDS011;3503;50.07605000;8.86719200;2023-05-10T13:31:00;1.30;;;0.40;;
6926;SDS011;3503;50.07605000;8.86719200;2023-05-10T13:46:04;4.83;;;1.00;;
6926;SDS011;3503;50.07605000;8.86719200;2023-05-10T14:01:07;2.70;;;1.10;;
6926;SDS011;3503;50.07605000;8.86719200;2023-05-10T14:16:10;1.80;;;0.80;;
6926;SDS011;3503;50.07605000;8.86719200;2023-05-10T14:31:13;1.90;;;0.60;;
6926;SDS011;3503;50.07605000;8.86719200;2023-05-10T14:46:18;2.97;;;0.97;;
6926;SDS011;3503;50.07605000;8.86719200;2023-05-10T15:01:21;2.97;;;0.73;;
6926;SDS011;3503;50.07605000;8.86719200;2023-05-10T15:16:24;2.00;;;0.87;;
6926;SDS011;3503;50.07605000;8.86719200;2023-05-10T15:31:27;6.73;;;1.27;;
6926;SDS011;3503;50.07605000;8.86719200;2023-05-10T15:46:30;3.40;;;0.60;;
6926;SDS011;3503;50.07605000;8.86719200;2023-05-10T16:01:33;1.60;;;0.57;;
6926;SDS011;3503;50.07605000;8.86719200;2023-05-10T16:16:36;2.77;;;1.00;;
6926;SDS011;3503;50.07605000;8.86719200;2023-05-10T16:31:39;3.30;;;0.70;;
6926;SDS011;3503;50.07605000;8.86719200;2023-05-10T16:46:43;7.03;;;1.20;;
6926;SDS011;3503;50.07605000;8.86719200;2023-05-10T17:01:46;5.10;;;0.80;;
6926;SDS011;3503;50.07605000;8.86719200;2023-05-10T17:16:49;2.20;;;0.83;;
6926;SDS011;3503;50.07605000;8.86719200;2023-05-10T17:31:53;5.10;;;1.13;;
6926;SDS011;3503;50.07605000;8.86719200;2023-05-10T17:46:56;3.50;;;0.63;;
6926;SDS011;3503;50.07605000;8.86719200;2023-05-10T18:01:59;1.97;;;0.67;;
6926;SDS011;3503;50.07605000;8.86719200;2023-05-10T18:17:03;5.10;;;1.00;;
6926;SDS011;3503;50.07605000;8.86719200;2023-05-10T18:32:06;9.27;;;1.43;;
6926;SDS011;3503;50.07605000;8.86719200;2023-05-10T18:47:09;8.80;;;1.37;;
6926;SDS011;3503;50.07605000;8.86719200;2023-05-10T19:02:12;4.13;;;0.73;;
6926;SDS011;3503;50.07605000;8.86719200;2023-05-10T19:17:15;4.30;;;0.83;;
6926;SDS011;3503;50.07605000;8.86719200;2023-05-10T19:32:19;4.23;;;1.60;;
6926;SDS011;3503;50.07605000;8.86719200;2023-05-10T19:47:22;2.67;;;0.90;;
6926;SDS011;3503;50.07605000;8.86719200;2023-05-10T20:02:25;3.93;;;1.30;;
6926;SDS011;3503;50.07605000;8.86719200;2023-05-10T20:17:28;7.30;;;1.73;;
6926;SDS011;3503;50.07605000;8.86719200;2023-05-10T20:32:32;4.50;;;1.47;;
6926;SDS011;3503;50.07605000;8.86719200;2023-05-10T20:47:36;4.40;;;1.40;;
6926;SDS011;3503;50.07605000;8.86719200;2023-05-10T21:02:40;5.00;;;1.60;;
6926;SDS011;3503;50.07605000;8.86719200;2023-05-10T21:17:47;25.23;;;2.00;;
6926;SDS011;3503;50.07605000;8.86719200;2023-05-10T21:32:50;6.60;;;2.40;;
6926;SDS011;3503;50.07605000;8.86719200;2023-05-10T21:47:55;5.03;;;1.87;;
6926;SDS011;3503;50.07605000;8.86719200;2023-05-10T22:02:58;8.60;;;1.60;;
6926;SDS011;3503;50.07605000;8.86719200;2023-05-10T22:18:01;2.87;;;1.93;;
6926;SDS011;3503;50.07605000;8.86719200;2023-05-10T22:33:04;7.93;;;1.73;;
6926;SDS011;3503;50.07605000;8.86719200;2023-05-10T22:48:08;7.03;;;1.20;;
6926;SDS011;3503;50.07605000;8.86719200;2023-05-10T23:03:11;1.87;;;1.27;;
6926;SDS011;3503;50.07605000;8.86719200;2023-05-10T23:18:15;6.87;;;1.77;;
6926;SDS011;3503;50.07605000;8.86719200;2023-05-10T23:33:18;5.77;;;1.23;;
6926;SDS011;3503;50.07605000;8.86719200;2023-05-10T23:48:21;12.23;;;1.60;;
